Time;durP1;ratioP1;P1;durP2;ratioP2;P2;SDS_P1;SDS_P2;PMS_P1;PMS_P2;Temp;Humidity;BMP_temperature;BMP_pressure;BME280_temperature;BME280_humidity;BME280_pressure;Samples;Min_cycle;Max_cycle;Signal;HPM_P1;HPM_P2
2023/03/30 00:00:00;;;;;;;2.85;0.50;;;12.60;99.90;;;;;;5023671;28;20025;-91
2023/03/30 00:02:29;;;;;;;1.65;0.47;;;12.60;99.90;;;;;;5033883;28;20033;-91
2023/03/30 00:05:04;;;;;;;1.70;0.40;;;12.50;99.90;;;;;;5014406;28;20022;-89
2023/03/30 00:07:29;;;;;;;3.03;0.55;;;12.40;99.90;;;;;;5033137;28;20069;-89
2023/03/30 00:09:56;;;;;;;2.28;0.50;;;12.40;99.90;;;;;;5034895;28;20067;-91
2023/03/30 00:12:22;;;;;;;2.70;0.50;;;12.40;99.90;;;;;;5025228;28;20042;-89
2023/03/30 00:14:48;;;;;;;2.63;0.60;;;12.40;99.90;;;;;;5021245;28;20044;-91
2023/03/30 00:17:14;;;;;;;1.80;0.60;;;12.30;99.90;;;;;;5025778;28;21905;-91
2023/03/30 00:19:40;;;;;;;2.30;0.47;;;12.20;99.90;;;;;;5040998;28;20534;-90
2023/03/30 00:22:08;;;;;;;1.80;0.50;;;12.30;99.90;;;;;;5026536;28;20116;-89
2023/03/30 00:24:36;;;;;;;1.80;0.47;;;12.30;99.90;;;;;;5025738;28;20064;-90
2023/03/30 00:27:02;;;;;;;2.53;0.50;;;12.30;99.90;;;;;;5016091;28;20041;-90
2023/03/30 00:29:28;;;;;;;1.88;0.70;;;12.30;99.90;;;;;;5021781;28;20026;-92
2023/03/30 00:31:54;;;;;;;1.38;0.40;;;12.20;99.90;;;;;;5037790;28;20036;-86
2023/03/30 00:34:20;;;;;;;3.25;0.60;;;12.10;99.90;;;;;;5039070;28;20039;-90
2023/03/30 00:36:48;;;;;;;2.72;0.50;;;12.10;99.90;;;;;;5013399;28;20511;-89
2023/03/30 00:39:17;;;;;;;3.85;0.85;;;12.10;99.90;;;;;;5015867;28;20057;-90
2023/03/30 00:41:44;;;;;;;1.98;0.60;;;12.10;99.90;;;;;;5031726;28;20120;-85
2023/03/30 00:44:48;;;;;;;3.05;0.63;;;12.10;99.90;;;;;;5024254;28;20400;-89
2023/03/30 00:47:15;;;;;;;2.40;0.60;;;12.10;99.90;;;;;;5031992;28;20067;-87
2023/03/30 00:49:42;;;;;;;1.40;0.60;;;12.10;99.90;;;;;;5025212;28;20078;-90
2023/03/30 00:52:09;;;;;;;2.17;0.50;;;12.00;99.90;;;;;;5031528;28;20116;-86
2023/03/30 00:54:37;;;;;;;2.22;0.68;;;12.00;99.90;;;;;;5045152;28;20056;-86
2023/03/30 00:57:04;;;;;;;2.05;0.50;;;12.00;99.90;;;;;;5035952;28;20068;-91
2023/03/30 00:59:30;;;;;;;2.08;0.70;;;11.90;99.90;;;;;;5022034;28;20029;-87
2023/03/30 01:01:55;;;;;;;3.25;0.63;;;12.10;99.90;;;;;;5021904;28;20029;-90
2023/03/30 01:04:22;;;;;;;1.25;0.50;;;12.00;99.90;;;;;;5026216;28;20160;-89
2023/03/30 01:06:48;;;;;;;2.22;0.40;;;12.10;99.90;;;;;;5012832;28;20260;-91
2023/03/30 01:09:15;;;;;;;1.38;0.40;;;12.10;99.90;;;;;;5036868;28;20034;-90
2023/03/30 01:11:42;;;;;;;2.00;0.40;;;12.20;99.90;;;;;;5030568;28;20054;-91
2023/03/30 01:14:11;;;;;;;1.10;0.40;;;12.20;99.90;;;;;;5020980;28;20037;-90
2023/03/30 01:16:49;;;;;;;2.17;0.40;;;12.20;99.90;;;;;;5023815;28;20041;-88
2023/03/30 01:19:52;;;;;;;1.75;0.40;;;12.10;99.90;;;;;;5048277;28;20492;-90
2023/03/30 01:22:17;;;;;;;1.58;0.40;;;12.10;99.90;;;;;;5025073;28;20025;-90
2023/03/30 01:25:04;;;;;;;2.13;0.40;;;12.20;99.90;;;;;;5023510;28;20114;-92
2023/03/30 01:27:44;;;;;;;1.33;0.50;;;12.20;99.90;;;;;;5039889;28;20157;-90
2023/03/30 01:30:17;;;;;;;;;;;12.20;99.90;;;;;;5037907;28;20033;-90
2023/03/30 01:33:42;;;;;;;1.88;0.40;;;12.20;99.90;;;;;;5047684;28;19962;-90
2023/03/30 01:36:22;;;;;;;2.67;0.70;;;12.20;99.90;;;;;;4997011;28;20128;-90
2023/03/30 01:39:13;;;;;;;2.08;0.50;;;12.20;99.90;;;;;;4978345;28;20128;-91
2023/03/30 01:41:44;;;;;;;1.48;0.40;;;12.20;99.90;;;;;;4997487;28;20028;-90
2023/03/30 01:44:34;;;;;;;1.77;0.40;;;12.10;99.90;;;;;;4998393;28;20031;-89
2023/03/30 01:47:26;;;;;;;1.60;0.40;;;12.00;99.90;;;;;;5001172;28;20092;-92
2023/03/30 01:50:18;;;;;;;1.38;0.40;;;11.90;99.90;;;;;;4997873;28;20040;-93
2023/03/30 01:52:52;;;;;;;0.93;0.30;;;11.90;99.90;;;;;;4969651;28;20512;-92
2023/03/30 01:55:39;;;;;;;2.25;0.32;;;11.90;99.90;;;;;;4979020;28;20395;-90
2023/03/30 01:58:22;;;;;;;2.67;0.40;;;11.90;99.90;;;;;;4977906;28;20053;-91
2023/03/30 02:00:50;;;;;;;2.38;0.40;;;12.00;99.90;;;;;;4961414;28;20029;-90
2023/03/30 02:03:24;;;;;;;1.02;0.30;;;12.10;99.90;;;;;;4997028;28;20109;-92
2023/03/30 02:05:55;;;;;;;1.00;0.30;;;12.10;99.90;;;;;;4983354;28;20033;-89
2023/03/30 02:08:26;;;;;;;1.58;0.30;;;12.00;99.90;;;;;;4997470;28;20064;-88
2023/03/30 02:10:54;;;;;;;0.93;0.30;;;12.10;99.90;;;;;;5032135;28;20030;-91
2023/03/30 02:13:21;;;;;;;2.05;0.30;;;12.10;99.90;;;;;;5012058;28;20044;-92
2023/03/30 02:15:56;;;;;;;1.30;0.40;;;12.10;99.90;;;;;;5051358;28;20039;-91
2023/03/30 02:18:22;;;;;;;1.38;0.40;;;12.10;99.90;;;;;;5035209;28;20528;-89
2023/03/30 02:20:50;;;;;;;1.45;0.40;;;12.10;99.90;;;;;;5017123;28;20031;-91
2023/03/30 02:23:20;;;;;;;1.15;0.32;;;12.10;99.90;;;;;;5044524;28;20087;-90
2023/03/30 02:25:45;;;;;;;3.78;0.93;;;12.00;99.90;;;;;;5014517;28;20063;-91
2023/03/30 02:28:11;;;;;;;2.63;0.30;;;12.10;99.90;;;;;;5014701;28;20060;-90
2023/03/30 02:30:44;;;;;;;1.27;0.32;;;11.90;99.90;;;;;;5044780;28;20055;-92
2023/03/30 02:33:45;;;;;;;0.77;0.30;;;12.00;99.90;;;;;;5019725;28;20040;-90
2023/03/30 02:36:55;;;;;;;1.40;0.22;;;11.90;99.90;;;;;;4978076;28;20042;-92
2023/03/30 02:39:30;;;;;;;2.95;0.30;;;11.90;99.90;;;;;;4981914;28;20038;-90
2023/03/30 02:42:23;;;;;;;1.00;0.30;;;11.90;99.90;;;;;;4996561;28;20073;-91
2023/03/30 02:45:26;;;;;;;1.20;0.30;;;12.00;99.90;;;;;;4992759;28;20065;-93
2023/03/30 02:48:00;;;;;;;1.70;0.30;;;11.90;99.90;;;;;;4972313;28;20037;-91
2023/03/30 02:50:40;;;;;;;2.28;0.35;;;11.90;99.90;;;;;;4993356;28;20237;-85
2023/03/30 02:53:36;;;;;;;2.05;0.30;;;11.90;99.90;;;;;;4995993;28;20021;-90
2023/03/30 02:56:36;;;;;;;1.23;0.30;;;11.80;99.90;;;;;;4993217;28;20041;-92
2023/03/30 02:59:02;;;;;;;1.40;0.30;;;11.80;99.90;;;;;;4997706;28;20034;-89
2023/03/30 03:01:46;;;;;;;1.40;0.40;;;11.80;99.90;;;;;;4998225;28;20285;-91
2023/03/30 03:04:16;;;;;;;1.23;0.30;;;11.90;99.90;;;;;;4995636;28;20084;-89
2023/03/30 03:07:01;;;;;;;2.92;0.40;;;12.00;99.90;;;;;;4979884;28;20523;-90
2023/03/30 03:09:28;;;;;;;3.05;0.50;;;12.10;99.90;;;;;;5008107;28;20071;-87
2023/03/30 03:11:55;;;;;;;1.77;0.40;;;12.20;99.90;;;;;;5018144;28;20087;-89
2023/03/30 03:14:21;;;;;;;1.70;0.40;;;12.20;99.90;;;;;;5018400;28;20037;-89
2023/03/30 03:16:46;;;;;;;2.10;0.30;;;12.20;99.90;;;;;;5018616;28;20378;-87
2023/03/30 03:19:14;;;;;;;2.25;0.55;;;12.30;99.90;;;;;;5030109;28;20024;-89
2023/03/30 03:21:41;;;;;;;1.25;0.30;;;12.30;99.90;;;;;;5022540;28;20033;-90
2023/03/30 03:24:08;;;;;;;0.93;0.20;;;12.30;99.90;;;;;;5032221;28;20377;-91
2023/03/30 03:26:57;;;;;;;0.70;0.30;;;12.60;99.90;;;;;;4998706;28;20069;-90
2023/03/30 03:29:24;;;;;;;1.10;0.20;;;12.60;99.90;;;;;;4987953;28;20092;-91
2023/03/30 03:31:49;;;;;;;1.10;0.30;;;12.80;99.90;;;;;;4987656;28;20042;-89
2023/03/30 03:34:16;;;;;;;3.10;0.30;;;12.80;99.90;;;;;;5001979;28;20022;-92
2023/03/30 03:36:58;;;;;;;0.98;0.20;;;12.80;99.90;;;;;;4983704;28;20034;-92
2023/03/30 03:39:26;;;;;;;2.70;0.30;;;12.70;99.90;;;;;;5000374;28;20121;-90
2023/03/30 03:41:59;;;;;;;1.20;0.20;;;12.80;99.90;;;;;;4989632;28;20410;-90
2023/03/30 03:44:28;;;;;;;0.88;0.20;;;12.80;99.90;;;;;;5004809;28;20045;-90
2023/03/30 03:46:54;;;;;;;1.02;0.20;;;12.80;99.90;;;;;;4995619;28;21059;-90
2023/03/30 03:49:19;;;;;;;1.00;0.28;;;12.80;99.90;;;;;;5005520;28;20360;-91
2023/03/30 03:51:48;;;;;;;1.15;0.20;;;12.80;99.90;;;;;;4997173;28;20065;-89
2023/03/30 03:54:13;;;;;;;1.88;0.20;;;12.70;99.90;;;;;;5004784;28;20033;-88
2023/03/30 03:56:42;;;;;;;0.68;0.20;;;12.80;99.90;;;;;;4986816;28;20051;-90
2023/03/30 03:59:08;;;;;;;2.63;0.20;;;12.70;99.90;;;;;;4982422;28;20126;-89
2023/03/30 04:01:33;;;;;;;1.38;0.20;;;12.70;99.90;;;;;;5007004;28;20029;-89
2023/03/30 04:03:59;;;;;;;1.55;0.20;;;12.70;99.90;;;;;;5003308;28;20057;-91
2023/03/30 04:06:25;;;;;;;3.47;0.20;;;12.70;99.90;;;;;;5009705;28;20500;-87
2023/03/30 04:08:52;;;;;;;1.33;0.20;;;12.70;99.90;;;;;;5050980;28;20088;-90
2023/03/30 04:11:49;;;;;;;2.55;0.40;;;12.90;99.90;;;;;;4984404;28;20049;-90
2023/03/30 04:14:33;;;;;;;2.10;0.20;;;13.00;99.90;;;;;;4967121;28;20045;-91
2023/03/30 04:17:17;;;;;;;1.10;0.20;;;13.00;99.90;;;;;;4986182;28;20038;-91
2023/03/30 04:20:11;;;;;;;1.42;0.20;;;12.90;99.90;;;;;;4915126;29;20705;-90
2023/03/30 04:22:48;;;;;;;1.00;0.20;;;12.70;99.90;;;;;;4935661;29;20043;-91
2023/03/30 04:25:44;;;;;;;0.50;0.15;;;12.60;99.90;;;;;;4899159;29;20062;-91
2023/03/30 04:28:30;;;;;;;0.70;0.10;;;12.50;99.90;;;;;;4896228;29;20504;-91
2023/03/30 04:31:11;;;;;;;0.47;0.20;;;12.40;99.90;;;;;;4885621;29;20036;-90
2023/03/30 04:33:52;;;;;;;0.75;0.20;;;12.30;99.90;;;;;;4885949;29;20474;-91
2023/03/30 04:36:36;;;;;;;0.40;0.10;;;12.30;99.90;;;;;;4882378;29;20091;-87
2023/03/30 04:39:30;;;;;;;1.45;0.20;;;12.30;99.90;;;;;;4880385;29;20514;-89
2023/03/30 04:42:18;;;;;;;1.15;0.20;;;12.20;99.90;;;;;;4882098;29;20052;-89
2023/03/30 04:45:19;;;;;;;0.82;0.10;;;12.10;99.90;;;;;;4877400;29;20060;-88
2023/03/30 04:48:06;;;;;;;1.15;0.20;;;12.00;99.90;;;;;;4901522;29;20051;-89
2023/03/30 04:50:51;;;;;;;0.57;0.13;;;12.00;99.90;;;;;;4919796;29;20034;-90
2023/03/30 04:53:34;;;;;;;0.75;0.20;;;12.00;99.90;;;;;;4901734;29;20391;-87
2023/03/30 04:56:18;;;;;;;0.95;0.20;;;12.00;99.90;;;;;;4909429;28;20342;-90
2023/03/30 04:58:55;;;;;;;0.88;0.20;;;12.00;99.90;;;;;;4942415;28;20027;-90
2023/03/30 05:01:48;;;;;;;1.27;0.20;;;11.90;99.90;;;;;;4983306;28;20052;-90
2023/03/30 05:04:29;;;;;;;2.45;0.20;;;12.00;99.90;;;;;;5035752;28;20061;-88
2023/03/30 05:07:13;;;;;;;0.60;0.20;;;11.90;99.90;;;;;;5034358;28;20040;-90
2023/03/30 05:09:49;;;;;;;0.70;0.20;;;12.00;99.90;;;;;;5026333;28;20028;-88
2023/03/30 05:12:33;;;;;;;0.85;0.20;;;11.90;99.90;;;;;;5033138;28;20052;-92
2023/03/30 05:15:07;;;;;;;2.45;0.20;;;11.90;99.90;;;;;;5023929;28;20028;-90
2023/03/30 05:17:47;;;;;;;2.63;0.20;;;11.90;99.90;;;;;;5022778;28;20100;-88
2023/03/30 05:20:36;;;;;;;1.88;0.30;;;11.90;99.90;;;;;;5045490;28;20548;-90
2023/03/30 05:23:01;;;;;;;1.55;0.50;;;12.00;99.90;;;;;;5006099;28;20136;-85
2023/03/30 05:25:50;;;;;;;3.15;0.40;;;11.90;99.90;;;;;;5025637;28;20060;-86
2023/03/30 05:28:34;;;;;;;1.95;0.40;;;12.20;99.90;;;;;;5027961;28;20068;-89
2023/03/30 05:31:38;;;;;;;2.85;0.50;;;12.20;99.90;;;;;;5034247;28;20525;-84
2023/03/30 05:34:23;;;;;;;3.00;0.40;;;12.40;99.90;;;;;;5015197;28;20161;-88
2023/03/30 05:37:02;;;;;;;1.67;0.40;;;12.40;99.90;;;;;;5042614;28;20034;-86
2023/03/30 05:39:48;;;;;;;2.97;0.68;;;12.20;99.90;;;;;;5024929;28;20033;-83
2023/03/30 05:42:46;;;;;;;3.20;0.50;;;12.20;99.90;;;;;;4985149;28;20038;-84
2023/03/30 05:45:31;;;;;;;3.10;0.50;;;12.20;99.90;;;;;;4966054;28;20117;-85
2023/03/30 05:48:02;;;;;;;3.25;0.40;;;12.10;99.90;;;;;;4964954;28;20499;-87
2023/03/30 05:50:34;;;;;;;2.05;0.40;;;12.00;99.90;;;;;;4973138;28;20035;-85
2023/03/30 05:53:05;;;;;;;3.38;0.52;;;12.00;99.90;;;;;;4965635;28;20483;-84
2023/03/30 05:55:48;;;;;;;2.47;0.30;;;11.90;99.90;;;;;;4967432;28;20038;-85
2023/03/30 05:58:38;;;;;;;1.05;0.30;;;11.90;99.90;;;;;;4962257;28;20075;-84
2023/03/30 06:01:19;;;;;;;2.13;0.30;;;11.90;99.90;;;;;;4950661;28;20070;-84
2023/03/30 06:03:47;;;;;;;2.15;0.30;;;11.90;99.90;;;;;;4945379;28;20457;-84
2023/03/30 06:06:13;;;;;;;2.70;0.47;;;11.90;99.90;;;;;;4962259;28;20030;-89
2023/03/30 06:08:40;;;;;;;3.35;0.35;;;11.90;99.90;;;;;;4944617;28;20045;-85
2023/03/30 06:11:08;;;;;;;1.85;0.40;;;12.00;99.90;;;;;;4979077;28;20431;-85
2023/03/30 06:13:44;;;;;;;2.33;0.30;;;11.90;99.90;;;;;;4965227;28;20557;-87
2023/03/30 06:16:10;;;;;;;2.83;0.30;;;12.00;99.90;;;;;;4976704;28;20054;-85
2023/03/30 06:18:37;;;;;;;4.18;0.40;;;12.00;99.90;;;;;;5018341;28;20083;-85
2023/03/30 06:21:08;;;;;;;7.45;0.50;;;12.10;99.90;;;;;;5010079;28;20470;-86
2023/03/30 06:23:53;;;;;;;2.13;0.40;;;12.10;99.90;;;;;;5031128;28;20033;-85
2023/03/30 06:26:23;;;;;;;3.08;0.40;;;12.10;99.90;;;;;;5008498;28;20052;-86
2023/03/30 06:28:48;;;;;;;4.47;0.40;;;12.10;99.90;;;;;;5009579;28;20043;-84
2023/03/30 06:31:15;;;;;;;1.98;0.30;;;12.10;99.90;;;;;;5026623;28;20444;-86
2023/03/30 06:33:42;;;;;;;2.33;0.40;;;12.10;99.90;;;;;;5025980;28;20397;-88
2023/03/30 06:36:10;;;;;;;1.60;0.40;;;12.10;99.90;;;;;;5028846;28;20343;-87
2023/03/30 06:38:37;;;;;;;3.25;0.40;;;12.10;99.90;;;;;;5039350;28;20017;-86
2023/03/30 06:41:07;;;;;;;3.50;0.30;;;12.10;99.90;;;;;;5024168;28;20025;-85
2023/03/30 06:43:33;;;;;;;4.30;0.50;;;12.10;99.90;;;;;;5034350;28;20040;-87
2023/03/30 06:46:19;;;;;;;2.42;0.50;;;12.10;99.90;;;;;;5029333;28;20440;-87
2023/03/30 06:48:47;;;;;;;3.95;0.60;;;12.20;99.90;;;;;;5032548;28;20116;-87
2023/03/30 06:51:34;;;;;;;2.00;0.60;;;12.20;99.90;;;;;;5045885;28;20539;-89
2023/03/30 06:54:00;;;;;;;5.28;0.52;;;12.20;99.90;;;;;;5022514;28;20021;-86
2023/03/30 06:56:26;;;;;;;3.22;0.50;;;12.20;99.90;;;;;;5018214;28;20120;-89
2023/03/30 06:59:14;;;;;;;5.32;0.60;;;12.20;99.90;;;;;;5045870;28;20045;-85
2023/03/30 07:01:59;;;;;;;2.03;0.40;;;12.20;99.90;;;;;;5038042;28;20036;-84
2023/03/30 07:04:41;;;;;;;2.65;0.45;;;12.10;99.90;;;;;;5025249;28;20531;-85
2023/03/30 07:07:30;;;;;;;5.40;1.08;;;12.10;99.90;;;;;;5021949;28;20068;-86
2023/03/30 07:09:56;;;;;;;4.43;0.60;;;12.10;99.90;;;;;;5010797;28;20021;-86
2023/03/30 07:12:25;;;;;;;4.90;1.27;;;12.10;99.90;;;;;;5019013;28;20053;-84
2023/03/30 07:14:51;;;;;;;2.47;0.63;;;12.10;99.90;;;;;;5021133;28;20030;-87
2023/03/30 07:17:16;;;;;;;4.07;0.55;;;12.20;99.90;;;;;;5022900;28;20060;-87
2023/03/30 07:19:42;;;;;;;4.82;0.40;;;12.30;99.90;;;;;;5008554;28;20030;-87
2023/03/30 07:22:08;;;;;;;2.60;0.40;;;12.40;99.90;;;;;;5039898;28;20030;-86
2023/03/30 07:24:35;;;;;;;6.20;0.70;;;12.30;99.90;;;;;;5022883;28;20024;-85
2023/03/30 07:27:01;;;;;;;4.95;0.80;;;12.30;99.90;;;;;;5024125;28;20029;-86
2023/03/30 07:29:27;;;;;;;4.43;0.57;;;12.30;99.90;;;;;;5040013;28;20077;-89
2023/03/30 07:31:55;;;;;;;7.60;0.50;;;12.40;99.90;;;;;;5036904;28;20056;-87
2023/03/30 07:34:22;;;;;;;6.90;0.60;;;12.40;99.90;;;;;;5008813;28;20022;-86
2023/03/30 07:36:52;;;;;;;5.53;0.40;;;12.30;99.90;;;;;;5019449;28;20037;-88
2023/03/30 07:39:18;;;;;;;8.70;0.80;;;12.20;99.90;;;;;;5020695;28;20022;-90
2023/03/30 07:41:46;;;;;;;9.07;0.93;;;12.10;99.90;;;;;;5021551;28;20036;-87
2023/03/30 07:44:12;;;;;;;3.78;0.50;;;12.20;99.90;;;;;;5022240;28;20018;-87
2023/03/30 07:46:38;;;;;;;4.78;0.55;;;12.60;99.90;;;;;;5044358;28;20021;-85
2023/03/30 07:49:04;;;;;;;6.57;1.10;;;12.80;99.90;;;;;;5016170;28;20147;-88
2023/03/30 07:51:31;;;;;;;10.63;0.90;;;13.00;99.90;;;;;;5012045;28;20032;-88
2023/03/30 07:54:23;;;;;;;6.82;0.60;;;13.10;99.90;;;;;;5033993;28;20037;-83
2023/03/30 07:57:12;;;;;;;7.07;0.50;;;13.20;99.90;;;;;;5022004;28;20038;-86
2023/03/30 07:59:38;;;;;;;7.47;0.80;;;13.50;99.90;;;;;;5047122;28;20025;-87
2023/03/30 08:02:27;;;;;;;5.65;0.60;;;13.60;99.90;;;;;;5041013;28;20045;-86
2023/03/30 08:04:54;;;;;;;5.80;0.50;;;13.50;99.90;;;;;;5020070;28;20025;-82
2023/03/30 08:07:29;;;;;;;8.00;0.65;;;13.60;99.90;;;;;;5034523;28;20030;-88
2023/03/30 08:10:03;;;;;;;6.38;0.50;;;13.60;99.90;;;;;;5009179;28;20414;-85
2023/03/30 08:12:29;;;;;;;6.03;0.50;;;13.80;99.90;;;;;;5027599;28;20078;-82
2023/03/30 08:14:55;;;;;;;8.73;0.70;;;13.90;99.90;;;;;;5019056;28;20469;-85
2023/03/30 08:17:21;;;;;;;9.82;0.68;;;14.00;99.90;;;;;;5006264;28;20248;-83
2023/03/30 08:19:47;;;;;;;6.70;1.40;;;13.80;99.90;;;;;;5016156;28;20398;-85
2023/03/30 08:22:12;;;;;;;10.88;0.70;;;13.60;99.90;;;;;;5044641;28;20159;-82
2023/03/30 08:24:38;;;;;;;7.78;0.52;;;13.40;99.90;;;;;;5034681;28;20036;-83
2023/03/30 08:27:03;;;;;;;8.05;0.45;;;13.30;99.90;;;;;;5037246;28;20070;-84
2023/03/30 08:29:30;;;;;;;8.38;0.80;;;13.50;99.90;;;;;;5045667;28;20030;-84
2023/03/30 08:31:56;;;;;;;9.30;1.13;;;13.50;99.90;;;;;;5040525;28;20032;-85
2023/03/30 08:34:22;;;;;;;9.48;1.08;;;13.40;99.90;;;;;;5006203;28;20026;-87
2023/03/30 08:36:50;;;;;;;11.98;0.90;;;13.40;99.90;;;;;;5028501;28;20103;-85
2023/03/30 08:39:16;;;;;;;12.32;0.80;;;13.30;99.90;;;;;;5041885;28;20045;-83
2023/03/30 08:42:20;;;;;;;10.98;0.60;;;13.20;99.90;;;;;;5023556;28;20057;-83
2023/03/30 08:44:51;;;;;;;8.45;1.00;;;13.20;99.90;;;;;;4989503;28;20034;-84
2023/03/30 08:47:31;;;;;;;5.93;0.60;;;13.30;99.90;;;;;;5014209;28;20037;-84
2023/03/30 08:50:05;;;;;;;13.82;0.90;;;13.30;99.90;;;;;;4986846;28;20037;-85
2023/03/30 08:52:32;;;;;;;12.93;0.77;;;13.30;99.90;;;;;;5015310;28;20148;-86
2023/03/30 08:54:58;;;;;;;13.35;0.93;;;13.30;99.90;;;;;;4984815;28;20022;-86
2023/03/30 08:58:12;;;;;;;9.00;0.88;;;13.50;99.90;;;;;;4989693;28;20041;-84
2023/03/30 09:00:46;;;;;;;10.43;0.60;;;13.60;99.90;;;;;;4968368;28;20039;-87
2023/03/30 09:03:34;;;;;;;11.02;0.80;;;13.70;99.90;;;;;;4997381;28;20037;-86
2023/03/30 09:06:37;;;;;;;18.88;1.65;;;13.80;99.90;;;;;;4983166;28;20041;-87
2023/03/30 09:09:04;;;;;;;13.90;0.85;;;13.70;99.90;;;;;;4985414;28;20506;-85
2023/03/30 09:11:36;;;;;;;10.88;1.02;;;13.60;99.90;;;;;;4991660;28;20040;-83
2023/03/30 09:14:05;;;;;;;9.88;0.80;;;13.40;99.90;;;;;;4997823;28;20048;-88
2023/03/30 09:16:36;;;;;;;8.00;0.93;;;13.50;99.90;;;;;;5024024;28;20060;-83
2023/03/30 09:19:08;;;;;;;9.85;0.77;;;13.50;99.90;;;;;;5020968;28;20059;-87
2023/03/30 09:21:33;;;;;;;13.45;1.15;;;13.60;99.90;;;;;;5030163;28;20061;-85
2023/03/30 09:24:05;;;;;;;10.13;0.73;;;13.70;99.90;;;;;;5024288;28;20026;-83
2023/03/30 09:26:43;;;;;;;11.55;0.80;;;13.50;99.90;;;;;;5045915;28;20029;-85
2023/03/30 09:29:38;;;;;;;9.73;0.70;;;13.50;99.90;;;;;;5027392;28;20029;-83
2023/03/30 09:32:29;;;;;;;3.85;0.60;;;13.50;99.90;;;;;;5042924;28;20044;-86
2023/03/30 09:35:03;;;;;;;7.93;0.80;;;13.70;99.90;;;;;;5039733;28;20057;-84
2023/03/30 09:37:30;;;;;;;9.90;0.93;;;13.90;99.90;;;;;;5029050;28;20041;-87
2023/03/30 09:39:57;;;;;;;9.05;0.60;;;13.80;99.90;;;;;;5035044;28;20025;-85
2023/03/30 09:42:50;;;;;;;8.98;1.13;;;13.70;99.90;;;;;;5016171;28;20042;-84
2023/03/30 09:45:30;;;;;;;12.60;0.80;;;14.10;99.90;;;;;;5038368;28;20041;-84
2023/03/30 09:48:09;;;;;;;11.75;0.70;;;14.30;99.90;;;;;;5020518;28;20036;-83
2023/03/30 09:50:41;;;;;;;11.70;0.80;;;13.90;99.90;;;;;;5053108;28;20086;-84
2023/03/30 09:53:18;;;;;;;10.77;1.08;;;13.90;99.90;;;;;;5020850;28;20076;-85
2023/03/30 09:55:57;;;;;;;9.18;0.98;;;13.90;99.90;;;;;;5019358;28;20088;-84
2023/03/30 09:58:31;;;;;;;14.10;0.70;;;13.80;99.90;;;;;;5020621;28;20045;-84
2023/03/30 10:01:11;;;;;;;6.03;0.52;;;13.80;99.90;;;;;;5031415;28;20097;-83
2023/03/30 10:03:37;;;;;;;8.02;0.98;;;13.90;99.90;;;;;;5014668;28;20389;-86
2023/03/30 10:06:07;;;;;;;14.05;1.83;;;14.00;99.90;;;;;;5030018;28;20033;-83
2023/03/30 10:08:42;;;;;;;11.00;1.10;;;14.00;99.90;;;;;;5036228;28;20367;-86
2023/03/30 10:11:08;;;;;;;9.43;0.90;;;14.50;99.90;;;;;;5019535;28;20409;-84
2023/03/30 10:13:41;;;;;;;11.63;1.35;;;14.40;99.90;;;;;;5028692;28;20120;-87
2023/03/30 10:16:32;;;;;;;13.43;1.08;;;14.30;99.90;;;;;;5020449;28;20465;-90
2023/03/30 10:19:03;;;;;;;10.40;1.25;;;14.60;99.90;;;;;;5034598;28;20040;-90
2023/03/30 10:21:35;;;;;;;10.90;1.40;;;15.00;99.90;;;;;;5020746;28;20109;-87
2023/03/30 10:24:07;;;;;;;9.23;1.30;;;14.70;99.90;;;;;;5041603;28;20033;-85
2023/03/30 10:26:36;;;;;;;14.75;1.60;;;15.40;99.90;;;;;;5041760;28;20041;-89
2023/03/30 10:29:04;;;;;;;14.00;1.30;;;14.80;99.90;;;;;;5037710;28;20443;-86
2023/03/30 10:31:33;;;;;;;12.15;1.33;;;14.80;99.90;;;;;;5036191;28;20040;-81
2023/03/30 10:34:01;;;;;;;14.63;1.50;;;15.10;99.90;;;;;;5018037;28;20061;-82
2023/03/30 10:36:38;;;;;;;11.65;1.55;;;14.80;99.90;;;;;;5033309;28;20474;-85
2023/03/30 10:39:16;;;;;;;13.32;0.90;;;14.60;99.90;;;;;;5037096;28;20020;-87
2023/03/30 10:41:43;;;;;;;10.95;1.15;;;14.70;99.90;;;;;;5043246;28;20025;-80
2023/03/30 10:44:29;;;;;;;13.10;1.48;;;14.30;99.90;;;;;;5034084;28;20018;-83
2023/03/30 10:47:28;;;;;;;12.05;1.17;;;14.20;99.90;;;;;;5041963;28;20033;-85
2023/03/30 10:50:34;;;;;;;10.85;0.98;;;14.30;99.90;;;;;;5040739;28;20017;-82
2023/03/30 10:53:33;;;;;;;11.88;0.90;;;14.30;99.90;;;;;;5031423;28;20037;-84
2023/03/30 10:56:29;;;;;;;12.60;1.30;;;14.30;99.90;;;;;;5012038;28;20473;-85
2023/03/30 10:59:20;;;;;;;9.93;1.08;;;14.30;99.90;;;;;;5016213;28;20041;-92
2023/03/30 11:02:01;;;;;;;10.63;1.83;;;14.10;99.90;;;;;;5019487;28;20504;-85
2023/03/30 11:04:35;;;;;;;16.35;2.25;;;14.00;99.90;;;;;;5013956;28;20037;-85
2023/03/30 11:07:01;;;;;;;15.95;1.48;;;14.10;99.90;;;;;;5014200;28;20112;-89
2023/03/30 11:09:36;;;;;;;15.75;1.77;;;14.10;99.90;;;;;;5017461;28;20217;-90
2023/03/30 11:12:11;;;;;;;18.20;2.22;;;14.10;99.90;;;;;;5032365;28;20102;-90
2023/03/30 11:14:51;;;;;;;13.93;1.35;;;14.20;99.90;;;;;;5020268;28;20380;-89
2023/03/30 11:17:39;;;;;;;12.48;1.30;;;14.30;99.90;;;;;;5014787;28;20040;-91
2023/03/30 11:20:27;;;;;;;16.63;1.75;;;14.30;99.90;;;;;;5025440;28;20087;-85
2023/03/30 11:23:01;;;;;;;15.68;2.33;;;14.10;99.90;;;;;;5011218;28;20029;-83
2023/03/30 11:25:38;;;;;;;15.65;1.75;;;14.20;99.90;;;;;;5039099;28;20026;-88
2023/03/30 11:28:16;;;;;;;20.27;2.58;;;14.50;99.90;;;;;;5017071;28;20037;-90
2023/03/30 11:30:43;;;;;;;12.05;1.63;;;14.80;99.90;;;;;;5010253;28;20103;-90
2023/03/30 11:33:28;;;;;;;13.23;1.70;;;14.70;99.90;;;;;;5022385;28;20559;-89
2023/03/30 11:36:01;;;;;;;16.17;1.75;;;14.80;99.90;;;;;;5006884;28;20492;-89
2023/03/30 11:38:59;;;;;;;11.27;0.80;;;14.70;99.90;;;;;;5018470;28;20034;-90
2023/03/30 11:41:41;;;;;;;13.68;1.02;;;14.50;99.90;;;;;;5034098;28;20079;-84
2023/03/30 11:44:09;;;;;;;11.48;0.93;;;15.20;99.90;;;;;;5026088;28;20032;-89
2023/03/30 11:47:12;;;;;;;15.13;1.77;;;14.80;99.90;;;;;;5018725;28;20124;-84
2023/03/30 11:50:19;;;;;;;9.63;1.00;;;13.90;99.90;;;;;;5047310;28;20044;-82
2023/03/30 11:53:10;;;;;;;11.30;1.48;;;12.80;99.90;;;;;;4995252;28;20044;-88
2023/03/30 11:55:57;;;;;;;16.02;2.20;;;13.70;99.90;;;;;;5037657;28;20112;-88
2023/03/30 11:58:47;;;;;;;16.77;1.55;;;13.90;99.90;;;;;;5029507;28;20042;-88
2023/03/30 12:01:32;;;;;;;18.77;2.63;;;14.00;99.90;;;;;;5053631;28;20393;-82
2023/03/30 12:04:11;;;;;;;17.05;1.85;;;14.30;99.90;;;;;;5029526;28;20038;-90
2023/03/30 12:06:44;;;;;;;23.98;2.75;;;14.90;99.90;;;;;;5026070;28;20031;-88
2023/03/30 12:09:31;;;;;;;16.88;1.92;;;15.10;99.90;;;;;;5036191;28;20036;-89
2023/03/30 12:12:06;;;;;;;13.38;1.48;;;14.90;99.90;;;;;;5054932;28;20133;-90
2023/03/30 12:14:49;;;;;;;15.95;1.70;;;14.50;99.90;;;;;;5050438;28;20034;-90
2023/03/30 12:17:15;;;;;;;12.20;1.63;;;14.30;99.90;;;;;;5033957;28;20044;-80
2023/03/30 12:19:47;;;;;;;4.43;0.40;;;13.40;99.90;;;;;;5039771;28;20100;-80
2023/03/30 12:22:51;;;;;;;7.68;0.60;;;12.60;99.90;;;;;;5030364;28;20048;-82
2023/03/30 12:25:37;;;;;;;10.98;0.77;;;12.50;99.90;;;;;;5024935;28;20056;-79
2023/03/30 12:28:14;;;;;;;8.27;0.65;;;12.70;99.90;;;;;;5045220;28;20040;-80
2023/03/30 12:30:44;;;;;;;7.85;0.68;;;12.80;99.90;;;;;;5029336;28;20029;-81
2023/03/30 12:33:17;;;;;;;;;;;13.20;99.90;;;;;;5014506;28;20029;-80
2023/03/30 12:35:59;;;;;;;12.45;1.02;;;13.30;99.90;;;;;;5028218;28;19916;-78
2023/03/30 12:38:37;;;;;;;11.15;0.93;;;13.30;99.90;;;;;;5038781;28;20060;-88
2023/03/30 12:41:16;;;;;;;9.65;1.45;;;13.50;99.90;;;;;;5036077;28;20458;-89
2023/03/30 12:44:07;;;;;;;13.70;1.80;;;13.40;99.90;;;;;;5022638;28;20528;-88
2023/03/30 12:46:42;;;;;;;14.77;2.35;;;13.50;99.90;;;;;;5053983;28;20095;-85
2023/03/30 12:49:10;;;;;;;9.85;0.90;;;13.50;99.90;;;;;;5042401;28;20128;-87
2023/03/30 12:52:09;;;;;;;8.90;0.88;;;13.20;99.90;;;;;;5038639;28;20389;-89
2023/03/30 12:54:50;;;;;;;12.90;1.02;;;12.90;99.90;;;;;;5040774;28;20113;-88
2023/03/30 12:57:37;;;;;;;12.65;1.30;;;12.90;99.90;;;;;;5011058;28;20040;-87
2023/03/30 13:00:20;;;;;;;12.60;0.80;;;13.30;99.90;;;;;;5051029;28;20068;-86
2023/03/30 13:03:09;;;;;;;13.80;1.17;;;13.50;99.90;;;;;;5010774;28;20033;-90
2023/03/30 13:05:39;;;;;;;10.48;1.25;;;14.00;99.90;;;;;;5011133;28;20036;-87
2023/03/30 13:08:09;;;;;;;7.15;1.10;;;14.40;99.90;;;;;;5050003;28;20129;-91
2023/03/30 13:10:38;;;;;;;12.38;0.90;;;14.40;99.90;;;;;;5011123;28;20040;-85
2023/03/30 13:13:04;;;;;;;12.85;1.33;;;14.60;99.90;;;;;;5032191;28;20050;-86
2023/03/30 13:15:40;;;;;;;13.32;1.38;;;14.90;99.90;;;;;;5035837;28;20058;-86
2023/03/30 13:18:08;;;;;;;12.52;1.23;;;15.20;99.90;;;;;;5028551;28;20038;-86
2023/03/30 13:20:46;;;;;;;13.02;0.88;;;15.00;99.90;;;;;;5035380;28;20105;-90
2023/03/30 13:23:12;;;;;;;11.20;1.35;;;15.10;99.90;;;;;;5045321;28;20095;-86
2023/03/30 13:25:38;;;;;;;16.63;1.20;;;14.90;99.90;;;;;;5039201;28;20363;-83
2023/03/30 13:28:29;;;;;;;12.20;1.55;;;14.80;99.90;;;;;;5032656;28;20052;-86
2023/03/30 13:31:20;;;;;;;13.95;1.15;;;15.00;99.90;;;;;;5037052;28;20056;-88